No Name, Colorado
Current Conditions -  °F | °C
As of 6:50 PM on Wednesday 26 Nov 2014 (Local Time) from KEGE Reporting Station
Clear Clear  
Wind Chill: 27°   Ceiling: Unl
Heat Index: 34°   Visibility: 10mi
Dew Point: 28°   Wind: 8mph
Humidity: 81%   Direction: 60°ENE
Pressure: 30.43"   Gusts: NA
Location:  39.6119°N, 107.29°W
Report Text: KEGE 270150Z 06007KT 10SM SKC 01/M02 A3043
Loading
Personal Weather Stations






























Interactive Weather Map New forecast layout! Learn more

10-Day Weather Forecast

Advertisements
Track Severe Weather on mobile